sensor_id;sensor_type;location;lat;lon;timestamp;pressure;altitude;pressure_sealevel;temperature;humidity
60101;BME280;45978;53.646;55.930;2023-01-26T00:00:15;101012.41;;;-12.23;84.62
60101;BME280;45978;53.646;55.930;2023-01-26T00:01:19;101015.44;;;-12.17;83.96
60101;BME280;45978;53.646;55.930;2023-01-26T00:02:20;101018.59;;;-12.09;84.52
60101;BME280;45978;53.646;55.930;2023-01-26T00:03:22;101011.88;;;-12.09;84.34
60101;BME280;45978;53.646;55.930;2023-01-26T00:04:24;100992.78;;;-12.16;84.00
60101;BME280;45978;53.646;55.930;2023-01-26T00:05:25;100995.06;;;-12.19;83.93
60101;BME280;45978;53.646;55.930;2023-01-26T00:06:26;101001.47;;;-12.12;83.94
60101;BME280;45978;53.646;55.930;2023-01-26T00:07:28;101008.47;;;-12.09;84.63
60101;BME280;45978;53.646;55.930;2023-01-26T00:08:29;101013.00;;;-12.05;83.94
60101;BME280;45978;53.646;55.930;2023-01-26T00:09:30;100998.72;;;-12.15;84.60
60101;BME280;45978;53.646;55.930;2023-01-26T00:10:34;100990.00;;;-12.19;84.79
60101;BME280;45978;53.646;55.930;2023-01-26T00:11:37;100995.69;;;-12.11;84.35
60101;BME280;45978;53.646;55.930;2023-01-26T00:12:39;100985.19;;;-12.16;83.81
60101;BME280;45978;53.646;55.930;2023-01-26T00:13:42;101004.00;;;-12.12;84.05
60101;BME280;45978;53.646;55.930;2023-01-26T00:14:46;100998.94;;;-12.12;84.10
60101;BME280;45978;53.646;55.930;2023-01-26T00:15:49;100978.59;;;-12.13;84.30
60101;BME280;45978;53.646;55.930;2023-01-26T00:16:51;100979.75;;;-12.20;84.61
60101;BME280;45978;53.646;55.930;2023-01-26T00:17:55;100966.34;;;-12.19;84.61
60101;BME280;45978;53.646;55.930;2023-01-26T00:18:57;100970.00;;;-12.16;84.27
60101;BME280;45978;53.646;55.930;2023-01-26T00:20:01;100972.75;;;-12.12;84.58
60101;BME280;45978;53.646;55.930;2023-01-26T00:21:05;100980.72;;;-12.08;84.15
60101;BME280;45978;53.646;55.930;2023-01-26T00:22:08;100971.09;;;-12.12;84.52
60101;BME280;45978;53.646;55.930;2023-01-26T00:23:11;100963.50;;;-12.12;84.79
60101;BME280;45978;53.646;55.930;2023-01-26T00:24:12;100973.03;;;-12.09;84.88
60101;BME280;45978;53.646;55.930;2023-01-26T00:25:13;100940.81;;;-12.32;84.40
60101;BME280;45978;53.646;55.930;2023-01-26T00:26:22;100966.16;;;-12.10;85.17
60101;BME280;45978;53.646;55.930;2023-01-26T00:27:25;100967.47;;;-12.16;84.57
60101;BME280;45978;53.646;55.930;2023-01-26T00:28:28;100973.41;;;-12.15;84.93
60101;BME280;45978;53.646;55.930;2023-01-26T00:29:29;100972.94;;;-12.21;85.12
60101;BME280;45978;53.646;55.930;2023-01-26T00:30:33;100963.91;;;-12.18;84.27
60101;BME280;45978;53.646;55.930;2023-01-26T00:31:35;100960.53;;;-12.28;85.02
60101;BME280;45978;53.646;55.930;2023-01-26T00:32:37;100971.50;;;-12.18;84.48
60101;BME280;45978;53.646;55.930;2023-01-26T00:33:40;100961.88;;;-12.22;84.93
60101;BME280;45978;53.646;55.930;2023-01-26T00:34:44;100951.94;;;-12.30;84.70
60101;BME280;45978;53.646;55.930;2023-01-26T00:35:53;100938.16;;;-12.44;85.56
60101;BME280;45978;53.646;55.930;2023-01-26T00:36:55;100944.72;;;-12.36;85.44
60101;BME280;45978;53.646;55.930;2023-01-26T00:37:59;100948.66;;;-12.29;85.50
60101;BME280;45978;53.646;55.930;2023-01-26T00:39:00;100943.16;;;-12.24;85.46
60101;BME280;45978;53.646;55.930;2023-01-26T00:40:02;100953.41;;;-12.22;85.96
60101;BME280;45978;53.646;55.930;2023-01-26T00:41:06;100950.16;;;-12.31;85.41
60101;BME280;45978;53.646;55.930;2023-01-26T00:42:07;100931.31;;;-12.45;85.71
60101;BME280;45978;53.646;55.930;2023-01-26T00:43:15;100955.97;;;-12.32;85.91
60101;BME280;45978;53.646;55.930;2023-01-26T00:44:18;100967.84;;;-12.31;85.54
60101;BME280;45978;53.646;55.930;2023-01-26T00:45:20;100944.72;;;-12.36;85.86
60101;BME280;45978;53.646;55.930;2023-01-26T00:46:21;100946.00;;;-12.31;86.03
60101;BME280;45978;53.646;55.930;2023-01-26T00:47:23;100952.69;;;-12.31;85.89
60101;BME280;45978;53.646;55.930;2023-01-26T00:48:24;100951.66;;;-12.33;85.88
60101;BME280;45978;53.646;55.930;2023-01-26T00:49:29;100952.69;;;-12.31;86.30
60101;BME280;45978;53.646;55.930;2023-01-26T00:50:30;100963.56;;;-12.32;86.56
60101;BME280;45978;53.646;55.930;2023-01-26T00:51:31;100942.31;;;-12.34;85.82
60101;BME280;45978;53.646;55.930;2023-01-26T00:52:34;100919.94;;;-12.40;86.10
60101;BME280;45978;53.646;55.930;2023-01-26T00:53:36;100930.72;;;-12.43;85.75
60101;BME280;45978;53.646;55.930;2023-01-26T00:54:38;100940.94;;;-12.51;86.08
60101;BME280;45978;53.646;55.930;2023-01-26T00:55:40;100952.97;;;-12.39;85.83
60101;BME280;45978;53.646;55.930;2023-01-26T00:56:43;100950.03;;;-12.43;85.68
60101;BME280;45978;53.646;55.930;2023-01-26T00:57:44;100951.97;;;-12.41;86.19
60101;BME280;45978;53.646;55.930;2023-01-26T00:58:46;100936.53;;;-12.44;85.62
60101;BME280;45978;53.646;55.930;2023-01-26T00:59:47;100952.47;;;-12.45;86.20
60101;BME280;45978;53.646;55.930;2023-01-26T01:00:48;100944.75;;;-12.46;86.09
60101;BME280;45978;53.646;55.930;2023-01-26T01:01:50;100947.41;;;-12.45;85.75
60101;BME280;45978;53.646;55.930;2023-01-26T01:02:53;100940.94;;;-12.51;85.71
60101;BME280;45978;53.646;55.930;2023-01-26T01:03:56;100935.66;;;-12.54;85.46
60101;BME280;45978;53.646;55.930;2023-01-26T01:04:57;100931.09;;;-12.48;85.76
60101;BME280;45978;53.646;55.930;2023-01-26T01:06:00;100928.56;;;-12.48;85.25
60101;BME280;45978;53.646;55.930;2023-01-26T01:07:05;100938.69;;;-12.48;85.30
60101;BME280;45978;53.646;55.930;2023-01-26T01:08:07;100942.34;;;-12.45;85.64
60101;BME280;45978;53.646;55.930;2023-01-26T01:09:09;100946.13;;;-12.40;85.68
60101;BME280;45978;53.646;55.930;2023-01-26T01:10:13;100936.28;;;-12.47;85.67
60101;BME280;45978;53.646;55.930;2023-01-26T01:11:27;100937.81;;;-12.49;85.59
60101;BME280;45978;53.646;55.930;2023-01-26T01:12:29;100949.03;;;-12.45;85.29
60101;BME280;45978;53.646;55.930;2023-01-26T01:13:31;100919.56;;;-12.55;85.30
60101;BME280;45978;53.646;55.930;2023-01-26T01:14:32;100933.38;;;-12.51;85.21
60101;BME280;45978;53.646;55.930;2023-01-26T01:15:33;100940.22;;;-12.50;85.33
60101;BME280;45978;53.646;55.930;2023-01-26T01:16:34;100936.81;;;-12.51;85.22
60101;BME280;45978;53.646;55.930;2023-01-26T01:17:36;100918.97;;;-12.52;85.48
60101;BME280;45978;53.646;55.930;2023-01-26T01:18:38;100934.84;;;-12.43;85.14
60101;BME280;45978;53.646;55.930;2023-01-26T01:19:41;100917.66;;;-12.47;85.14
60101;BME280;45978;53.646;55.930;2023-01-26T01:20:42;100929.81;;;-12.43;85.30
60101;BME280;45978;53.646;55.930;2023-01-26T01:21:48;100942.59;;;-12.42;85.07
60101;BME280;45978;53.646;55.930;2023-01-26T01:22:50;100911.63;;;-12.60;85.64
60101;BME280;45978;53.646;55.930;2023-01-26T01:23:52;100927.28;;;-12.53;85.91
60101;BME280;45978;53.646;55.930;2023-01-26T01:24:53;100920.72;;;-12.51;85.52
60101;BME280;45978;53.646;55.930;2023-01-26T01:25:58;100932.22;;;-12.45;85.39
60101;BME280;45978;53.646;55.930;2023-01-26T01:27:01;100930.56;;;-12.44;85.06
60101;BME280;45978;53.646;55.930;2023-01-26T01:28:02;100922.88;;;-12.56;85.30
60101;BME280;45978;53.646;55.930;2023-01-26T01:29:04;100919.09;;;-12.61;85.38
60101;BME280;45978;53.646;55.930;2023-01-26T01:30:06;100935.91;;;-12.62;85.54
60101;BME280;45978;53.646;55.930;2023-01-26T01:31:11;100915.19;;;-12.68;85.79
60101;BME280;45978;53.646;55.930;2023-01-26T01:32:13;100923.53;;;-12.69;85.75
60101;BME280;45978;53.646;55.930;2023-01-26T01:33:14;100892.47;;;-12.88;85.63
60101;BME280;45978;53.646;55.930;2023-01-26T01:34:16;100931.09;;;-12.69;86.10
60101;BME280;45978;53.646;55.930;2023-01-26T01:35:17;100931.25;;;-12.67;85.36
60101;BME280;45978;53.646;55.930;2023-01-26T01:36:18;100946.16;;;-12.60;85.49
60101;BME280;45978;53.646;55.930;2023-01-26T01:37:20;100921.63;;;-12.71;85.32
60101;BME280;45978;53.646;55.930;2023-01-26T01:38:21;100914.56;;;-12.76;85.49
60101;BME280;45978;53.646;55.930;2023-01-26T01:39:22;100912.66;;;-12.68;86.32
60101;BME280;45978;53.646;55.930;2023-01-26T01:40:25;100940.59;;;-12.56;85.97
60101;BME280;45978;53.646;55.930;2023-01-26T01:41:26;100893.94;;;-12.70;86.08
60101;BME280;45978;53.646;55.930;2023-01-26T01:42:27;100920.09;;;-12.49;86.07
60101;BME280;45978;53.646;55.930;2023-01-26T01:43:29;100925.38;;;-12.46;85.53
60101;BME280;45978;53.646;55.930;2023-01-26T01:44:33;100930.84;;;-12.51;85.36
60101;BME280;45978;53.646;55.930;2023-01-26T01:45:40;100912.28;;;-12.62;85.67
60101;BME280;45978;53.646;55.930;2023-01-26T01:48:21;100908.81;;;-12.42;86.11
60101;BME280;45978;53.646;55.930;2023-01-26T01:49:28;100892.50;;;-12.46;85.80
60101;BME280;45978;53.646;55.930;2023-01-26T01:50:36;100900.75;;;-12.48;85.65
60101;BME280;45978;53.646;55.930;2023-01-26T01:52:54;100899.06;;;-12.38;85.45
60101;BME280;45978;53.646;55.930;2023-01-26T01:54:00;100890.84;;;-12.35;85.30
60101;BME280;45978;53.646;55.930;2023-01-26T01:55:05;100904.84;;;-12.28;85.50
60101;BME280;45978;53.646;55.930;2023-01-26T01:56:14;100892.13;;;-12.40;85.22
60101;BME280;45978;53.646;55.930;2023-01-26T01:57:23;100900.44;;;-12.31;85.79
60101;BME280;45978;53.646;55.930;2023-01-26T01:58:32;100888.72;;;-12.41;85.73
60101;BME280;45978;53.646;55.930;2023-01-26T01:59:36;100884.88;;;-12.36;85.63
60101;BME280;45978;53.646;55.930;2023-01-26T02:00:37;100894.41;;;-12.53;85.43
60101;BME280;45978;53.646;55.930;2023-01-26T02:01:40;100873.94;;;-12.57;85.63
60101;BME280;45978;53.646;55.930;2023-01-26T02:02:44;100907.03;;;-12.33;85.28
60101;BME280;45978;53.646;55.930;2023-01-26T02:04:06;100887.94;;;-12.40;85.35
60101;BME280;45978;53.646;55.930;2023-01-26T02:05:20;100899.84;;;-12.39;85.13
60101;BME280;45978;53.646;55.930;2023-01-26T02:06:34;100905.91;;;-12.37;86.14
60101;BME280;45978;53.646;55.930;2023-01-26T02:07:37;100888.75;;;-12.51;85.60
60101;BME280;45978;53.646;55.930;2023-01-26T02:08:43;100890.50;;;-12.50;85.66
60101;BME280;45978;53.646;55.930;2023-01-26T02:09:46;100891.75;;;-12.55;86.07
60101;BME280;45978;53.646;55.930;2023-01-26T02:11:41;100865.84;;;-12.52;85.81
60101;BME280;45978;53.646;55.930;2023-01-26T02:12:53;100865.81;;;-12.42;85.81
60101;BME280;45978;53.646;55.930;2023-01-26T02:14:06;100867.34;;;-12.44;86.32
60101;BME280;45978;53.646;55.930;2023-01-26T02:15:09;100841.81;;;-12.58;86.24
60101;BME280;45978;53.646;55.930;2023-01-26T02:16:11;100875.19;;;-12.41;85.82
60101;BME280;45978;53.646;55.930;2023-01-26T02:17:13;100863.34;;;-12.63;86.72
60101;BME280;45978;53.646;55.930;2023-01-26T02:18:15;100853.47;;;-12.60;86.75
60101;BME280;45978;53.646;55.930;2023-01-26T02:19:28;100876.28;;;-12.38;86.23
60101;BME280;45978;53.646;55.930;2023-01-26T02:20:51;100831.09;;;-12.65;86.73
60101;BME280;45978;53.646;55.930;2023-01-26T02:21:58;100853.94;;;-12.53;86.27
60101;BME280;45978;53.646;55.930;2023-01-26T02:23:52;100863.44;;;-12.51;86.25
60101;BME280;45978;53.646;55.930;2023-01-26T02:25:03;100857.47;;;-12.51;86.76
60101;BME280;45978;53.646;55.930;2023-01-26T02:26:31;100856.59;;;-12.52;86.98
60101;BME280;45978;53.646;55.930;2023-01-26T02:27:30;100869.63;;;-12.58;87.22
60101;BME280;45978;53.646;55.930;2023-01-26T02:28:31;100863.06;;;-12.56;86.99
60101;BME280;45978;53.646;55.930;2023-01-26T02:29:33;100857.50;;;-12.62;86.91
60101;BME280;45978;53.646;55.930;2023-01-26T02:30:34;100871.13;;;-12.49;86.70
60101;BME280;45978;53.646;55.930;2023-01-26T02:31:37;100862.19;;;-12.56;86.93
60101;BME280;45978;53.646;55.930;2023-01-26T02:32:38;100844.34;;;-12.58;86.57
60101;BME280;45978;53.646;55.930;2023-01-26T02:33:41;100848.75;;;-12.55;86.58
60101;BME280;45978;53.646;55.930;2023-01-26T02:34:46;100844.88;;;-12.62;87.06
60101;BME280;45978;53.646;55.930;2023-01-26T02:35:47;100847.00;;;-12.56;86.81
60101;BME280;45978;53.646;55.930;2023-01-26T02:36:57;100851.28;;;-12.45;87.18
60101;BME280;45978;53.646;55.930;2023-01-26T02:37:59;100814.53;;;-12.62;86.82
60101;BME280;45978;53.646;55.930;2023-01-26T02:41:18;100830.31;;;-12.54;86.78
60101;BME280;45978;53.646;55.930;2023-01-26T02:42:38;100857.47;;;-12.41;87.06
60101;BME280;45978;53.646;55.930;2023-01-26T02:43:41;100824.75;;;-12.60;87.23
60101;BME280;45978;53.646;55.930;2023-01-26T02:44:43;100827.41;;;-12.59;86.92
60101;BME280;45978;53.646;55.930;2023-01-26T02:45:45;100840.25;;;-12.45;86.87
60101;BME280;45978;53.646;55.930;2023-01-26T02:46:46;100845.56;;;-12.42;86.73
60101;BME280;45978;53.646;55.930;2023-01-26T02:47:49;100836.19;;;-12.43;87.35
60101;BME280;45978;53.646;55.930;2023-01-26T02:48:51;100835.44;;;-12.42;86.85
60101;BME280;45978;53.646;55.930;2023-01-26T02:50:11;100837.50;;;-12.48;86.80
60101;BME280;45978;53.646;55.930;2023-01-26T02:51:12;100828.38;;;-12.46;86.93
60101;BME280;45978;53.646;55.930;2023-01-26T02:52:16;100858.81;;;-12.34;86.97
60101;BME280;45978;53.646;55.930;2023-01-26T02:53:19;100848.63;;;-12.46;86.84
60101;BME280;45978;53.646;55.930;2023-01-26T02:54:21;100843.22;;;-12.51;87.12
60101;BME280;45978;53.646;55.930;2023-01-26T02:55:40;100841.16;;;-12.45;86.71
60101;BME280;45978;53.646;55.930;2023-01-26T02:56:42;100836.19;;;-12.43;86.76
60101;BME280;45978;53.646;55.930;2023-01-26T02:57:44;100858.81;;;-12.34;86.85
60101;BME280;45978;53.646;55.930;2023-01-26T02:58:46;100849.28;;;-12.49;86.87
60101;BME280;45978;53.646;55.930;2023-01-26T02:59:47;100862.53;;;-12.51;86.76
60101;BME280;45978;53.646;55.930;2023-01-26T03:00:49;100850.28;;;-12.57;87.35
60101;BME280;45978;53.646;55.930;2023-01-26T03:01:51;100864.63;;;-12.36;87.21
60101;BME280;45978;53.646;55.930;2023-01-26T03:02:55;100858.03;;;-12.33;87.06
60101;BME280;45978;53.646;55.930;2023-01-26T03:03:58;100864.63;;;-12.36;87.01
60101;BME280;45978;53.646;55.930;2023-01-26T03:05:00;100848.22;;;-12.41;86.71
60101;BME280;45978;53.646;55.930;2023-01-26T03:06:01;100827.66;;;-12.56;87.02
60101;BME280;45978;53.646;55.930;2023-01-26T03:07:04;100815.28;;;-12.63;87.13
60101;BME280;45978;53.646;55.930;2023-01-26T03:08:06;100843.38;;;-12.38;87.30
60101;BME280;45978;53.646;55.930;2023-01-26T03:09:10;100846.31;;;-12.43;87.03
60101;BME280;45978;53.646;55.930;2023-01-26T03:10:12;100846.53;;;-12.30;86.68
60101;BME280;45978;53.646;55.930;2023-01-26T03:11:13;100839.06;;;-12.28;86.78
60101;BME280;45978;53.646;55.930;2023-01-26T03:12:15;100831.22;;;-12.31;86.77
60101;BME280;45978;53.646;55.930;2023-01-26T03:13:16;100857.25;;;-12.22;86.63
60101;BME280;45978;53.646;55.930;2023-01-26T03:14:18;100844.25;;;-12.27;86.94
60101;BME280;45978;53.646;55.930;2023-01-26T03:15:19;100821.78;;;-12.44;86.57
60101;BME280;45978;53.646;55.930;2023-01-26T03:16:43;100847.13;;;-12.22;87.00
60101;BME280;45978;53.646;55.930;2023-01-26T03:17:44;100847.91;;;-12.23;86.48
60101;BME280;45978;53.646;55.930;2023-01-26T03:18:46;100854.84;;;-12.21;86.79
60101;BME280;45978;53.646;55.930;2023-01-26T03:20:06;100838.19;;;-12.29;87.05
60101;BME280;45978;53.646;55.930;2023-01-26T03:21:27;100861.31;;;-12.24;86.69
60101;BME280;45978;53.646;55.930;2023-01-26T03:22:47;100850.72;;;-12.30;87.45
60101;BME280;45978;53.646;55.930;2023-01-26T03:24:10;100850.44;;;-12.23;87.17
60101;BME280;45978;53.646;55.930;2023-01-26T03:25:32;100849.53;;;-12.24;87.08
60101;BME280;45978;53.646;55.930;2023-01-26T03:26:52;100840.72;;;-12.29;87.72
60101;BME280;45978;53.646;55.930;2023-01-26T03:28:11;100830.38;;;-12.42;87.28
60101;BME280;45978;53.646;55.930;2023-01-26T03:29:14;100849.53;;;-12.24;87.52
60101;BME280;45978;53.646;55.930;2023-01-26T03:30:18;100848.53;;;-12.26;87.17
60101;BME280;45978;53.646;55.930;2023-01-26T03:31:21;100848.91;;;-12.21;87.75
60101;BME280;45978;53.646;55.930;2023-01-26T03:32:23;100817.88;;;-12.41;87.25
60101;BME280;45978;53.646;55.930;2023-01-26T03:33:26;100846.72;;;-12.17;86.97
60101;BME280;45978;53.646;55.930;2023-01-26T03:34:28;100859.13;;;-12.09;87.59
60101;BME280;45978;53.646;55.930;2023-01-26T03:35:31;100834.47;;;-12.22;86.81
60101;BME280;45978;53.646;55.930;2023-01-26T03:36:33;100851.44;;;-12.21;87.42
60101;BME280;45978;53.646;55.930;2023-01-26T03:37:43;100842.72;;;-12.25;87.50
60101;BME280;45978;53.646;55.930;2023-01-26T03:38:49;100840.41;;;-12.22;87.13
60101;BME280;45978;53.646;55.930;2023-01-26T03:39:50;100861.25;;;-12.14;87.30
60101;BME280;45978;53.646;55.930;2023-01-26T03:41:10;100814.53;;;-12.29;87.16
60101;BME280;45978;53.646;55.930;2023-01-26T03:42:30;100842.41;;;-12.18;87.52
60101;BME280;45978;53.646;55.930;2023-01-26T03:43:50;100852.44;;;-12.19;87.00
60101;BME280;45978;53.646;55.930;2023-01-26T03:45:10;100857.38;;;-12.21;86.75
60101;BME280;45978;53.646;55.930;2023-01-26T03:46:29;100837.00;;;-12.22;86.95
60101;BME280;45978;53.646;55.930;2023-01-26T03:47:49;100834.47;;;-12.22;86.93
60101;BME280;45978;53.646;55.930;2023-01-26T03:49:09;100845.44;;;-12.11;86.70
60101;BME280;45978;53.646;55.930;2023-01-26T03:50:29;100841.28;;;-12.11;86.74
60101;BME280;45978;53.646;55.930;2023-01-26T03:51:52;100851.13;;;-12.14;87.05
60101;BME280;45978;53.646;55.930;2023-01-26T03:53:22;100855.44;;;-12.13;87.51
60101;BME280;45978;53.646;55.930;2023-01-26T03:54:44;100858.50;;;-12.17;87.19
60101;BME280;45978;53.646;55.930;2023-01-26T03:56:10;100866.44;;;-12.12;87.32
60101;BME280;45978;53.646;55.930;2023-01-26T03:57:31;100855.44;;;-12.13;86.87
60101;BME280;45978;53.646;55.930;2023-01-26T03:58:32;100863.78;;;-12.14;86.68
60101;BME280;45978;53.646;55.930;2023-01-26T03:59:35;100847.13;;;-12.22;87.14
60101;BME280;45978;53.646;55.930;2023-01-26T04:00:48;100864.03;;;-12.11;86.66
60101;BME280;45978;53.646;55.930;2023-01-26T04:01:52;100854.97;;;-12.19;86.51
60101;BME280;45978;53.646;55.930;2023-01-26T04:03:12;100862.25;;;-12.12;86.92
60101;BME280;45978;53.646;55.930;2023-01-26T04:04:32;100862.38;;;-12.10;87.27
60101;BME280;45978;53.646;55.930;2023-01-26T04:05:58;100861.75;;;-12.08;87.39
60101;BME280;45978;53.646;55.930;2023-01-26T04:07:22;100854.16;;;-12.08;86.90
60101;BME280;45978;53.646;55.930;2023-01-26T04:08:45;100841.41;;;-12.20;86.98
60101;BME280;45978;53.646;55.930;2023-01-26T04:09:46;100855.16;;;-12.06;86.66
60101;BME280;45978;53.646;55.930;2023-01-26T04:10:52;100858.41;;;-11.97;86.45
60101;BME280;45978;53.646;55.930;2023-01-26T04:11:53;100846.28;;;-12.01;86.39
60101;BME280;45978;53.646;55.930;2023-01-26T04:12:55;100849.69;;;-12.00;86.48
60101;BME280;45978;53.646;55.930;2023-01-26T04:14:20;100832.88;;;-12.10;86.06
60101;BME280;45978;53.646;55.930;2023-01-26T04:15:40;100861.72;;;-11.98;86.03
60101;BME280;45978;53.646;55.930;2023-01-26T04:17:01;100855.53;;;-12.01;85.83
60101;BME280;45978;53.646;55.930;2023-01-26T04:18:22;100813.47;;;-12.21;86.03
60101;BME280;45978;53.646;55.930;2023-01-26T04:19:41;100837.94;;;-12.10;85.51
60101;BME280;45978;53.646;55.930;2023-01-26T04:21:05;100833.88;;;-12.08;86.13
60101;BME280;45978;53.646;55.930;2023-01-26T04:22:26;100863.38;;;-11.86;86.42
60101;BME280;45978;53.646;55.930;2023-01-26T04:23:27;100850.41;;;-11.91;85.64
60101;BME280;45978;53.646;55.930;2023-01-26T04:24:29;100827.69;;;-12.01;85.73
60101;BME280;45978;53.646;55.930;2023-01-26T04:25:31;100834.50;;;-12.00;86.13
60101;BME280;45978;53.646;55.930;2023-01-26T04:26:33;100862.84;;;-11.82;85.50
60101;BME280;45978;53.646;55.930;2023-01-26T04:27:42;100850.97;;;-11.83;85.56
60101;BME280;45978;53.646;55.930;2023-01-26T04:28:44;100845.09;;;-11.82;85.40
60101;BME280;45978;53.646;55.930;2023-01-26T04:29:45;100863.09;;;-11.79;85.22
60101;BME280;45978;53.646;55.930;2023-01-26T04:30:49;100847.00;;;-11.91;85.31
60101;BME280;45978;53.646;55.930;2023-01-26T04:31:54;100833.56;;;-11.90;85.69
60101;BME280;45978;53.646;55.930;2023-01-26T04:32:57;100841.56;;;-11.84;85.12
60101;BME280;45978;53.646;55.930;2023-01-26T04:34:00;100862.16;;;-11.69;85.46
60101;BME280;45978;53.646;55.930;2023-01-26T04:35:04;100842.16;;;-11.77;85.78
60101;BME280;45978;53.646;55.930;2023-01-26T04:36:08;100844.88;;;-11.63;85.65
60101;BME280;45978;53.646;55.930;2023-01-26T04:37:15;100857.84;;;-11.48;86.04
60101;BME280;45978;53.646;55.930;2023-01-26T04:38:22;100861.38;;;-11.46;85.18
60101;BME280;45978;53.646;55.930;2023-01-26T04:39:23;100862.53;;;-11.53;84.92
60101;BME280;45978;53.646;55.930;2023-01-26T04:40:28;100853.72;;;-11.58;85.37
60101;BME280;45978;53.646;55.930;2023-01-26T04:41:32;100858.66;;;-11.60;84.69
60101;BME280;45978;53.646;55.930;2023-01-26T04:42:41;100861.66;;;-11.53;86.08
60101;BME280;45978;53.646;55.930;2023-01-26T04:43:43;100855.13;;;-11.62;85.51
60101;BME280;45978;53.646;55.930;2023-01-26T04:44:45;100848.19;;;-11.64;85.35
60101;BME280;45978;53.646;55.930;2023-01-26T04:46:05;100842.81;;;-11.57;86.16
60101;BME280;45978;53.646;55.930;2023-01-26T04:47:09;100845.81;;;-11.51;86.33
60101;BME280;45978;53.646;55.930;2023-01-26T04:48:11;100848.38;;;-11.39;85.64
60101;BME280;45978;53.646;55.930;2023-01-26T04:49:13;100859.75;;;-11.34;85.55
60101;BME280;45978;53.646;55.930;2023-01-26T04:50:15;100844.63;;;-11.44;86.43
60101;BME280;45978;53.646;55.930;2023-01-26T04:51:20;100812.28;;;-11.59;85.83
60101;BME280;45978;53.646;55.930;2023-01-26T04:52:22;100850.72;;;-11.30;85.86
60101;BME280;45978;53.646;55.930;2023-01-26T04:53:24;100747.25;;;-11.82;85.12
60101;BME280;45978;53.646;55.930;2023-01-26T04:54:26;100750.53;;;-11.83;85.40
60101;BME280;45978;53.646;55.930;2023-01-26T04:55:27;100768.19;;;-11.72;85.51
60101;BME280;45978;53.646;55.930;2023-01-26T04:56:32;100745.59;;;-11.93;85.47
60101;BME280;45978;53.646;55.930;2023-01-26T04:57:34;100828.00;;;-11.41;84.91
60101;BME280;45978;53.646;55.930;2023-01-26T04:58:39;100816.97;;;-11.41;85.64
60101;BME280;45978;53.646;55.930;2023-01-26T04:59:40;100832.44;;;-11.26;85.42
60101;BME280;45978;53.646;55.930;2023-01-26T05:00:42;100823.59;;;-11.31;85.07
60101;BME280;45978;53.646;55.930;2023-01-26T05:01:43;100850.88;;;-11.17;85.25
60101;BME280;45978;53.646;55.930;2023-01-26T05:02:45;100824.50;;;-11.31;85.53
60101;BME280;45978;53.646;55.930;2023-01-26T05:03:46;100845.53;;;-11.32;84.92
60101;BME280;45978;53.646;55.930;2023-01-26T05:04:48;100846.00;;;-11.26;85.13
60101;BME280;45978;53.646;55.930;2023-01-26T05:05:52;100838.63;;;-11.23;84.22
60101;BME280;45978;53.646;55.930;2023-01-26T05:06:55;100847.03;;;-11.12;84.98
60101;BME280;45978;53.646;55.930;2023-01-26T05:08:00;100839.97;;;-11.16;85.07
60101;BME280;45978;53.646;55.930;2023-01-26T05:09:05;100839.25;;;-11.25;84.90
60101;BME280;45978;53.646;55.930;2023-01-26T05:10:09;100846.16;;;-11.12;85.19
60101;BME280;45978;53.646;55.930;2023-01-26T05:11:31;100823.88;;;-11.17;84.63
60101;BME280;45978;53.646;55.930;2023-01-26T05:12:48;100825.81;;;-11.36;85.10
60101;BME280;45978;53.646;55.930;2023-01-26T05:14:02;100852.31;;;-11.21;84.89
60101;BME280;45978;53.646;55.930;2023-01-26T05:15:32;100833.47;;;-11.12;83.47
60101;BME280;45978;53.646;55.930;2023-01-26T05:16:38;100839.09;;;-11.05;83.98
60101;BME280;45978;53.646;55.930;2023-01-26T05:18:05;100838.56;;;-11.01;84.90
60101;BME280;45978;53.646;55.930;2023-01-26T05:19:17;100828.88;;;-10.94;84.16
60101;BME280;45978;53.646;55.930;2023-01-26T05:20:24;100807.81;;;-11.05;83.99
60101;BME280;45978;53.646;55.930;2023-01-26T05:21:48;100817.59;;;-10.98;83.16
60101;BME280;45978;53.646;55.930;2023-01-26T05:22:49;100809.44;;;-11.06;83.81
60101;BME280;45978;53.646;55.930;2023-01-26T05:24:11;100816.41;;;-11.03;83.59
60101;BME280;45978;53.646;55.930;2023-01-26T05:25:37;100827.00;;;-10.97;82.82
60101;BME280;45978;53.646;55.930;2023-01-26T05:26:42;100808.00;;;-11.02;83.07
60101;BME280;45978;53.646;55.930;2023-01-26T05:27:51;100797.66;;;-11.05;83.29
60101;BME280;45978;53.646;55.930;2023-01-26T05:28:53;100813.97;;;-10.90;82.96
60101;BME280;45978;53.646;55.930;2023-01-26T05:29:55;100804.81;;;-11.00;83.00
60101;BME280;45978;53.646;55.930;2023-01-26T05:31:00;100819.59;;;-10.94;82.91
60101;BME280;45978;53.646;55.930;2023-01-26T05:32:01;100801.75;;;-11.07;82.98
60101;BME280;45978;53.646;55.930;2023-01-26T05:33:04;100794.56;;;-11.01;82.91
60101;BME280;45978;53.646;55.930;2023-01-26T05:34:07;100802.09;;;-10.79;82.92
60101;BME280;45978;53.646;55.930;2023-01-26T05:35:10;100813.53;;;-10.61;82.51
60101;BME280;45978;53.646;55.930;2023-01-26T05:36:11;100820.41;;;-10.71;82.41
60101;BME280;45978;53.646;55.930;2023-01-26T05:37:13;100809.03;;;-10.77;82.36
60101;BME280;45978;53.646;55.930;2023-01-26T05:38:17;100818.63;;;-10.72;81.95
60101;BME280;45978;53.646;55.930;2023-01-26T05:39:24;100808.56;;;-10.59;81.90
60101;BME280;45978;53.646;55.930;2023-01-26T05:40:26;100816.97;;;-10.48;81.96
60101;BME280;45978;53.646;55.930;2023-01-26T05:41:29;100813.53;;;-10.49;81.59
60101;BME280;45978;53.646;55.930;2023-01-26T05:43:05;100788.97;;;-10.85;81.52
60101;BME280;45978;53.646;55.930;2023-01-26T05:44:45;100814.88;;;-10.42;81.21